createdAt,value
2018-01-12T00:00:33.600Z,46.90
2018-01-12T00:03:00.584Z,49.30
2018-01-12T00:05:27.418Z,50.63
2018-01-12T00:07:54.217Z,47.50
2018-01-12T00:10:21.188Z,43.37
2018-01-12T00:12:48.018Z,45.33
2018-01-12T00:15:15.335Z,43.40
2018-01-12T00:17:42.236Z,45.80
2018-01-12T00:20:09.112Z,48.87
2018-01-12T00:22:36.598Z,45.60
2018-01-12T00:25:03.535Z,43.50
2018-01-12T00:27:30.718Z,44.97
2018-01-12T00:29:57.517Z,48.30
2018-01-12T00:32:24.362Z,45.10
2018-01-12T00:34:51.357Z,42.17
2018-01-12T00:37:18.181Z,42.57
2018-01-12T00:39:44.939Z,42.57
2018-01-12T00:42:11.772Z,39.17
2018-01-12T00:44:38.714Z,42.20
2018-01-12T00:47:05.670Z,41.33
2018-01-12T00:49:32.482Z,42.63
2018-01-12T00:51:59.555Z,38.23
2018-01-12T00:54:26.474Z,40.00
2018-01-12T00:56:53.274Z,40.60
2018-01-12T00:59:20.073Z,40.87
2018-01-12T01:01:47.110Z,43.63
2018-01-12T01:04:14.824Z,42.33
2018-01-12T01:06:42.748Z,39.20
2018-01-12T01:09:09.532Z,43.37
2018-01-12T01:11:36.303Z,38.40
2018-01-12T01:14:03.406Z,35.40
2018-01-12T01:16:30.340Z,41.33
2018-01-12T01:18:57.124Z,38.20
2018-01-12T01:21:23.908Z,44.23
2018-01-12T01:23:50.714Z,39.17
2018-01-12T01:26:17.506Z,35.60
2018-01-12T01:28:44.381Z,36.37
2018-01-12T01:31:11.433Z,35.80
2018-01-12T01:33:38.223Z,35.07
2018-01-12T01:36:05.057Z,42.40
2018-01-12T01:38:31.858Z,37.07
2018-01-12T01:40:58.871Z,32.23
2018-01-12T01:43:25.656Z,33.50
2018-01-12T01:45:52.562Z,33.37
2018-01-12T01:48:25.027Z,32.60
2018-01-12T01:50:51.799Z,35.10
2018-01-12T01:53:18.605Z,32.83
2018-01-12T01:55:45.390Z,32.73
2018-01-12T01:58:12.196Z,30.83
2018-01-12T02:00:38.992Z,33.40
2018-01-12T02:03:05.770Z,33.50
2018-01-12T02:05:32.580Z,33.43
2018-01-12T02:07:59.459Z,34.33
2018-01-12T02:10:26.239Z,30.27
2018-01-12T02:12:53.014Z,30.10
2018-01-12T02:15:19.785Z,32.77
2018-01-12T02:17:46.655Z,31.00
2018-01-12T02:20:13.483Z,29.70
2018-01-12T02:22:40.318Z,35.03
2018-01-12T02:25:07.898Z,34.50
2018-01-12T02:27:34.947Z,33.63
2018-01-12T02:30:01.727Z,32.43
2018-01-12T02:32:28.740Z,30.07
2018-01-12T02:34:55.583Z,30.27
2018-01-12T02:37:22.362Z,30.97
2018-01-12T02:39:49.132Z,29.83
2018-01-12T02:42:15.955Z,29.77
2018-01-12T02:44:42.842Z,31.20
2018-01-12T02:47:10.312Z,31.07
2018-01-12T02:49:37.087Z,30.73
2018-01-12T02:52:03.893Z,27.70
2018-01-12T02:54:30.660Z,26.80
2018-01-12T02:56:57.690Z,27.23
2018-01-12T02:59:24.634Z,27.10
2018-01-12T03:01:51.440Z,26.63
2018-01-12T03:04:18.212Z,27.07
2018-01-12T03:06:44.996Z,26.17
2018-01-12T03:09:11.899Z,28.10
2018-01-12T03:11:38.860Z,25.60
2018-01-12T03:14:05.705Z,27.07
2018-01-12T03:16:32.736Z,27.43
2018-01-12T03:18:59.696Z,27.93
2018-01-12T03:21:26.500Z,26.77
2018-01-12T03:23:53.490Z,25.90
2018-01-12T03:26:20.441Z,26.07
2018-01-12T03:28:48.099Z,26.17
2018-01-12T03:31:14.871Z,24.07
2018-01-12T03:33:41.773Z,26.10
2018-01-12T03:36:08.742Z,26.33
2018-01-12T03:38:35.468Z,26.37
2018-01-12T03:41:02.321Z,25.70
2018-01-12T03:43:29.114Z,23.77
2018-01-12T03:45:55.881Z,26.90
2018-01-12T03:48:22.853Z,26.07
2018-01-12T03:50:49.636Z,27.17
2018-01-12T03:53:16.565Z,24.40
2018-01-12T03:55:43.352Z,24.60
2018-01-12T03:58:10.221Z,26.77
2018-01-12T04:00:37.180Z,25.10
2018-01-12T04:03:03.984Z,24.20
2018-01-12T04:05:30.758Z,25.30
2018-01-12T04:07:57.529Z,24.77
2018-01-12T04:10:24.550Z,23.77
2018-01-12T04:12:51.497Z,25.00
2018-01-12T04:15:18.437Z,26.40
2018-01-12T04:17:45.284Z,24.70
2018-01-12T04:20:12.061Z,24.80
2018-01-12T04:22:39.070Z,24.47
2018-01-12T04:25:06.026Z,25.60
2018-01-12T04:27:32.800Z,24.97
2018-01-12T04:29:59.808Z,25.30
2018-01-12T04:32:26.654Z,23.33
2018-01-12T04:34:53.611Z,25.13
2018-01-12T04:37:20.646Z,24.37
2018-01-12T04:39:47.588Z,23.03
2018-01-12T04:42:14.357Z,24.47
2018-01-12T04:44:41.395Z,22.63
2018-01-12T04:47:08.382Z,22.83
2018-01-12T04:49:35.163Z,24.67
2018-01-12T04:52:02.018Z,23.63
2018-01-12T04:54:28.800Z,22.60
2018-01-12T04:56:55.595Z,23.43
2018-01-12T04:59:22.380Z,24.07
2018-01-12T05:01:49.305Z,26.03
2018-01-12T05:04:16.251Z,25.83
2018-01-12T05:06:43.039Z,24.40
2018-01-12T05:09:09.933Z,26.10
2018-01-12T05:11:36.994Z,25.37
2018-01-12T05:14:03.787Z,24.80
2018-01-12T05:16:30.781Z,26.13
2018-01-12T05:18:57.588Z,24.73
2018-01-12T05:21:24.403Z,25.10
2018-01-12T05:23:51.174Z,23.57
2018-01-12T05:26:17.949Z,24.13
2018-01-12T05:28:44.778Z,24.03
2018-01-12T05:31:11.554Z,23.73
2018-01-12T05:33:38.470Z,24.30
2018-01-12T05:36:05.624Z,22.97
2018-01-12T05:38:32.419Z,24.33
2018-01-12T05:40:59.311Z,24.53
2018-01-12T05:43:26.155Z,26.20
2018-01-12T05:45:52.994Z,25.40
2018-01-12T05:48:19.845Z,23.17
2018-01-12T05:50:46.625Z,33.37
2018-01-12T05:53:13.512Z,28.00
2018-01-12T05:55:40.278Z,35.43
2018-01-12T05:58:07.053Z,32.57
2018-01-12T06:00:34.086Z,27.03
2018-01-12T06:03:06.968Z,32.10
2018-01-12T06:05:41.798Z,26.80
2018-01-12T06:08:08.731Z,28.03
2018-01-12T06:10:35.690Z,81.50
2018-01-12T06:13:02.623Z,90.40
2018-01-12T06:15:29.481Z,61.93
2018-01-12T06:17:56.285Z,61.40
2018-01-12T06:20:23.392Z,83.50
2018-01-12T06:22:51.221Z,32.43
2018-01-12T06:25:17.957Z,49.97
2018-01-12T06:27:44.746Z,33.03
2018-01-12T06:30:11.538Z,46.17
2018-01-12T06:32:38.441Z,44.03
2018-01-12T06:35:05.342Z,27.77
2018-01-12T06:37:32.154Z,28.77
2018-01-12T06:39:58.934Z,48.60
2018-01-12T06:42:25.776Z,36.23
2018-01-12T06:44:52.936Z,25.87
2018-01-12T06:47:19.709Z,25.83
2018-01-12T06:49:46.714Z,23.07
2018-01-12T06:52:13.561Z,24.70
2018-01-12T06:54:40.606Z,24.23
2018-01-12T06:57:07.395Z,25.33
2018-01-12T06:59:34.442Z,22.80
2018-01-12T07:02:01.353Z,24.67
2018-01-12T07:04:28.196Z,31.93
2018-01-12T07:06:54.974Z,21.60
2018-01-12T07:09:21.742Z,22.37
2018-01-12T07:11:48.584Z,30.13
2018-01-12T07:14:15.455Z,44.87
2018-01-12T07:16:42.624Z,22.67
2018-01-12T07:19:09.451Z,30.37
2018-01-12T07:21:42.474Z,26.00
2018-01-12T07:24:09.278Z,30.60
2018-01-12T07:26:36.236Z,22.37
2018-01-12T07:29:03.021Z,24.37
2018-01-12T07:31:29.800Z,34.60
2018-01-12T07:33:56.609Z,25.63
2018-01-12T07:36:23.379Z,27.87
2018-01-12T07:38:50.159Z,28.67
2018-01-12T07:41:16.984Z,35.97
2018-01-12T07:43:43.777Z,28.20
2018-01-12T07:46:10.610Z,31.03
2018-01-12T07:48:37.393Z,45.90
2018-01-12T07:51:04.211Z,31.47
2018-01-12T07:53:31.004Z,25.23
2018-01-12T07:55:57.847Z,29.77
2018-01-12T07:58:24.705Z,31.07
2018-01-12T08:00:57.256Z,26.83
2018-01-12T08:03:24.113Z,22.07
2018-01-12T08:05:50.965Z,26.03
2018-01-12T08:08:17.935Z,26.13
2018-01-12T08:10:44.717Z,28.63
2018-01-12T08:13:11.590Z,24.73
2018-01-12T08:15:38.381Z,30.30
2018-01-12T08:18:05.273Z,38.43
2018-01-12T08:20:32.050Z,22.80
2018-01-12T08:22:58.973Z,26.10
2018-01-12T08:25:26.626Z,27.83
2018-01-12T08:27:53.396Z,25.47
2018-01-12T08:30:20.176Z,75.37
2018-01-12T08:32:46.956Z,35.13
2018-01-12T08:35:13.811Z,35.50
2018-01-12T08:37:40.665Z,83.17
2018-01-12T08:40:07.505Z,48.83
2018-01-12T08:42:34.250Z,60.37
2018-01-12T08:45:01.078Z,41.77
2018-01-12T08:47:27.895Z,30.33
2018-01-12T08:49:54.873Z,25.53
2018-01-12T08:52:22.619Z,26.53
2018-01-12T08:54:49.582Z,29.20
2018-01-12T08:57:16.527Z,27.73
2018-01-12T08:59:43.601Z,31.20
2018-01-12T09:02:10.622Z,29.30
2018-01-12T09:04:37.461Z,33.07
2018-01-12T09:07:04.733Z,23.60
2018-01-12T09:09:31.576Z,33.27
2018-01-12T09:11:58.497Z,26.93
2018-01-12T09:14:31.704Z,25.17
2018-01-12T09:16:58.558Z,26.03
2018-01-12T09:19:42.287Z,30.27
2018-01-12T09:22:09.129Z,24.53
2018-01-12T09:24:42.034Z,23.97
2018-01-12T09:27:08.853Z,24.57
2018-01-12T09:29:35.663Z,24.17
2018-01-12T09:32:02.695Z,25.67
2018-01-12T09:34:35.631Z,25.30
2018-01-12T09:37:02.487Z,26.77
2018-01-12T09:39:36.044Z,25.93
2018-01-12T09:42:03.036Z,23.80
2018-01-12T09:44:29.882Z,31.53
2018-01-12T09:47:02.867Z,28.33
2018-01-12T09:49:29.745Z,25.57
2018-01-12T09:51:56.529Z,26.63
2018-01-12T09:54:23.499Z,25.20
2018-01-12T09:56:50.550Z,26.33
2018-01-12T09:59:17.513Z,26.77
2018-01-12T10:01:44.439Z,26.93
2018-01-12T10:04:11.284Z,26.20
2018-01-12T10:06:38.057Z,28.17
2018-01-12T10:09:04.976Z,25.47
2018-01-12T10:11:31.826Z,25.47
2018-01-12T10:13:59.454Z,26.70
2018-01-12T10:16:26.229Z,28.47
2018-01-12T10:18:54.602Z,27.03
2018-01-12T10:21:27.272Z,26.03
2018-01-12T10:23:54.093Z,27.30
2018-01-12T10:26:21.073Z,27.73
2018-01-12T10:28:53.854Z,25.83
2018-01-12T10:31:20.697Z,25.73
2018-01-12T10:33:58.385Z,26.47
2018-01-12T10:36:40.287Z,26.23
2018-01-12T10:39:12.922Z,27.50
2018-01-12T10:41:45.871Z,26.50
2018-01-12T10:44:12.696Z,32.17
2018-01-12T10:46:45.487Z,26.70
2018-01-12T10:49:18.373Z,27.83
2018-01-12T10:51:45.193Z,29.67
2018-01-12T10:54:12.084Z,33.70
2018-01-12T10:56:40.666Z,28.57
2018-01-12T10:59:07.522Z,28.83
2018-01-12T11:01:35.270Z,29.87
2018-01-12T11:04:02.101Z,30.90
2018-01-12T11:06:28.918Z,31.93
2018-01-12T11:08:55.886Z,25.80
2018-01-12T11:11:22.661Z,28.97
2018-01-12T11:13:50.273Z,29.10
2018-01-12T11:16:17.743Z,27.20
2018-01-12T11:18:44.610Z,28.37
2018-01-12T11:21:11.520Z,28.70
2018-01-12T11:23:38.351Z,27.80
2018-01-12T11:26:05.243Z,27.27
2018-01-12T11:28:32.021Z,26.43
2018-01-12T11:30:58.816Z,27.97
2018-01-12T11:33:27.325Z,25.67
2018-01-12T11:35:54.243Z,28.67
2018-01-12T11:38:21.286Z,26.10
2018-01-12T11:40:48.284Z,27.43
2018-01-12T11:43:15.285Z,27.00
2018-01-12T11:45:42.129Z,27.30
2018-01-12T11:48:10.179Z,26.47
2018-01-12T11:50:37.055Z,35.33
2018-01-12T11:53:03.900Z,27.70
2018-01-12T11:55:30.696Z,30.73
2018-01-12T11:57:57.484Z,26.93
2018-01-12T12:00:24.560Z,28.23
2018-01-12T12:02:51.533Z,27.97
2018-01-12T12:05:18.266Z,29.23
2018-01-12T12:07:45.277Z,28.53
2018-01-12T12:10:12.106Z,30.77
2018-01-12T12:12:51.133Z,30.67
2018-01-12T12:15:18.018Z,28.00
2018-01-12T12:17:44.918Z,29.30
2018-01-12T12:20:13.616Z,27.33
2018-01-12T12:22:43.678Z,27.67
2018-01-12T12:25:10.521Z,29.10
2018-01-12T12:27:51.390Z,28.33
2018-01-12T12:30:18.405Z,26.57
2018-01-12T12:32:45.208Z,25.37
2018-01-12T12:35:12.099Z,32.00
2018-01-12T12:37:38.831Z,26.93
2018-01-12T12:40:05.787Z,24.60
2018-01-12T12:42:32.568Z,26.73
2018-01-12T12:44:59.394Z,26.57
2018-01-12T12:47:26.306Z,24.17
2018-01-12T12:49:54.000Z,22.63
2018-01-12T12:52:20.775Z,29.87
2018-01-12T12:54:47.595Z,22.23
2018-01-12T12:57:14.565Z,20.10
2018-01-12T12:59:41.541Z,23.03
2018-01-12T13:02:08.317Z,22.00
2018-01-12T13:04:35.091Z,21.10
2018-01-12T13:07:01.959Z,22.70
2018-01-12T13:09:28.825Z,22.47
2018-01-12T13:11:55.773Z,25.50
2018-01-12T13:14:22.718Z,24.03
2018-01-12T13:16:56.559Z,22.80
2018-01-12T13:19:24.192Z,23.47
2018-01-12T13:21:52.233Z,20.27
2018-01-12T13:24:19.009Z,21.03
2018-01-12T13:26:48.403Z,21.70
2018-01-12T13:29:18.281Z,18.93
2018-01-12T13:31:45.119Z,18.80
2018-01-12T13:34:17.957Z,19.70
2018-01-12T13:36:45.451Z,18.87
2018-01-12T13:39:12.357Z,18.40
2018-01-12T13:41:40.062Z,17.57
2018-01-12T13:44:07.222Z,17.47
2018-01-12T13:46:35.944Z,19.77
2018-01-12T13:49:05.874Z,20.43
2018-01-12T13:51:32.646Z,18.33
2018-01-12T13:54:00.316Z,17.10
2018-01-12T13:56:27.158Z,18.20
2018-01-12T13:58:53.943Z,19.13
2018-01-12T14:01:20.915Z,19.47
2018-01-12T14:03:47.838Z,17.67
2018-01-12T14:06:14.612Z,18.23
2018-01-12T14:08:41.392Z,19.83
2018-01-12T14:11:08.395Z,19.63
2018-01-12T14:13:35.455Z,20.23
2018-01-12T14:16:02.239Z,20.17
2018-01-12T14:18:29.237Z,20.37
2018-01-12T14:20:56.142Z,20.90
2018-01-12T14:23:23.073Z,20.63
2018-01-12T14:25:49.882Z,20.03
2018-01-12T14:28:16.815Z,22.83
2018-01-12T14:30:43.851Z,21.33
2018-01-12T14:33:10.813Z,19.17
2018-01-12T14:35:37.615Z,18.40
2018-01-12T14:38:04.569Z,18.33
2018-01-12T14:40:34.846Z,18.97
2018-01-12T14:43:01.618Z,18.63
2018-01-12T14:45:28.514Z,17.67
2018-01-12T14:47:55.553Z,19.50
2018-01-12T14:50:22.498Z,19.37
2018-01-12T14:52:50.068Z,20.17
2018-01-12T14:55:16.949Z,24.20
2018-01-12T14:57:43.731Z,20.03
2018-01-12T15:00:10.570Z,20.73
2018-01-12T15:02:37.552Z,20.93
2018-01-12T15:05:04.605Z,20.03
2018-01-12T15:07:31.389Z,18.67
2018-01-12T15:09:59.127Z,23.15
2018-01-12T15:12:25.927Z,20.67
2018-01-12T15:14:52.714Z,22.23
2018-01-12T15:17:19.486Z,23.00
2018-01-12T15:19:46.682Z,21.77
2018-01-12T15:22:13.727Z,25.10
2018-01-12T15:24:40.677Z,22.77
2018-01-12T15:27:07.823Z,22.47
2018-01-12T15:29:34.877Z,20.77
2018-01-12T15:32:02.038Z,20.50
2018-01-12T15:34:28.950Z,21.67
2018-01-12T15:36:55.817Z,21.63
2018-01-12T15:39:22.675Z,21.27
2018-01-12T15:41:50.637Z,21.77
2018-01-12T15:44:17.474Z,22.33
2018-01-12T15:46:44.440Z,21.60
2018-01-12T15:49:11.426Z,23.23
2018-01-12T15:51:38.318Z,21.10
2018-01-12T15:54:05.277Z,20.73
2018-01-12T15:56:32.085Z,22.30
2018-01-12T15:58:58.969Z,22.20
2018-01-12T16:01:25.993Z,21.50
2018-01-12T16:03:52.990Z,22.17
2018-01-12T16:06:21.458Z,22.63
2018-01-12T16:08:48.488Z,24.37
2018-01-12T16:11:15.525Z,23.57
2018-01-12T16:13:42.466Z,23.60
2018-01-12T16:16:09.289Z,23.87
2018-01-12T16:18:36.158Z,24.87
2018-01-12T16:21:03.115Z,23.67
2018-01-12T16:23:29.994Z,26.17
2018-01-12T16:25:56.806Z,22.37
2018-01-12T16:28:23.714Z,25.43
2018-01-12T16:30:50.627Z,23.13
2018-01-12T16:33:17.401Z,23.13
2018-01-12T16:35:44.266Z,24.03
2018-01-12T16:38:11.122Z,22.83
2018-01-12T16:40:37.957Z,24.17
2018-01-12T16:43:04.742Z,25.90
2018-01-12T16:45:31.753Z,22.57
2018-01-12T16:47:58.712Z,22.50
2018-01-12T16:50:25.646Z,23.83
2018-01-12T16:52:52.489Z,24.10
2018-01-12T16:55:19.336Z,26.83
2018-01-12T16:57:46.112Z,26.97
2018-01-12T17:00:13.010Z,28.07
2018-01-12T17:02:39.870Z,24.70
2018-01-12T17:05:06.690Z,27.73
2018-01-12T17:07:33.554Z,31.73
2018-01-12T17:10:00.700Z,30.97
2018-01-12T17:12:34.416Z,28.23
2018-01-12T17:15:01.274Z,27.30
2018-01-12T17:17:28.197Z,29.87
2018-01-12T17:19:55.044Z,29.70
2018-01-12T17:22:21.831Z,32.50
2018-01-12T17:24:48.718Z,29.60
2018-01-12T17:27:15.678Z,31.40
2018-01-12T17:29:42.455Z,31.20
2018-01-12T17:32:09.371Z,29.00
2018-01-12T17:34:36.216Z,30.03
2018-01-12T17:37:03.119Z,27.17
2018-01-12T17:39:29.919Z,28.00
2018-01-12T17:41:58.297Z,29.70
2018-01-12T17:44:25.340Z,29.23
2018-01-12T17:46:52.874Z,30.13
2018-01-12T17:49:19.670Z,31.67
2018-01-12T17:51:46.447Z,30.60
2018-01-12T17:54:13.342Z,29.00
2018-01-12T17:56:40.706Z,31.67
2018-01-12T17:59:07.710Z,30.10
2018-01-12T18:01:34.681Z,29.37
2018-01-12T18:04:01.573Z,32.23
2018-01-12T18:06:28.394Z,31.20
2018-01-12T18:08:55.391Z,32.00
2018-01-12T18:11:22.253Z,32.17
2018-01-12T18:13:49.103Z,30.97
2018-01-12T18:16:17.065Z,32.17
2018-01-12T18:18:43.842Z,28.67
2018-01-12T18:21:10.630Z,30.50
2018-01-12T18:23:37.414Z,27.97
2018-01-12T18:26:04.447Z,29.87
2018-01-12T18:28:35.963Z,30.00
2018-01-12T18:31:02.825Z,32.33
2018-01-12T18:33:29.670Z,29.27
2018-01-12T18:35:56.969Z,27.10
2018-01-12T18:38:23.973Z,26.83
2018-01-12T18:40:50.761Z,27.57
2018-01-12T18:43:17.781Z,28.70
2018-01-12T18:45:44.810Z,30.07
2018-01-12T18:48:11.667Z,28.27
2018-01-12T18:50:38.715Z,28.87
2018-01-12T18:53:05.518Z,29.27
2018-01-12T18:55:32.390Z,28.93
2018-01-12T18:57:59.975Z,27.93
2018-01-12T19:00:26.759Z,27.50
2018-01-12T19:02:53.655Z,26.70
2018-01-12T19:05:20.464Z,28.10
2018-01-12T19:07:47.245Z,27.53
2018-01-12T19:10:14.170Z,23.07
2018-01-12T19:12:41.172Z,27.00
2018-01-12T19:15:08.063Z,27.37
2018-01-12T19:17:35.109Z,27.50
2018-01-12T19:20:01.968Z,27.10
2018-01-12T19:22:28.808Z,27.30
2018-01-12T19:24:56.394Z,28.97
2018-01-12T19:27:23.322Z,29.23
2018-01-12T19:29:50.106Z,32.30
2018-01-12T19:32:17.011Z,28.60
2018-01-12T19:34:43.785Z,26.53
2018-01-12T19:37:10.701Z,27.10
2018-01-12T19:39:37.526Z,26.70
2018-01-12T19:42:04.318Z,24.93
2018-01-12T19:44:32.744Z,24.90
2018-01-12T19:47:00.437Z,24.37
2018-01-12T19:49:27.670Z,23.37
2018-01-12T19:51:54.803Z,23.27
2018-01-12T19:54:24.049Z,26.20
2018-01-12T19:56:51.051Z,26.40
2018-01-12T19:59:18.076Z,23.90
2018-01-12T20:01:44.897Z,23.47
2018-01-12T20:04:12.438Z,24.23
2018-01-12T20:06:39.395Z,26.53
2018-01-12T20:09:06.595Z,26.27
2018-01-12T20:11:34.299Z,24.23
2018-01-12T20:14:01.108Z,26.80
2018-01-12T20:16:27.926Z,28.27
2018-01-12T20:18:54.733Z,28.03
2018-01-12T20:21:21.792Z,27.20
2018-01-12T20:23:48.706Z,31.27
2018-01-12T20:26:15.490Z,24.90
2018-01-12T20:28:42.390Z,25.10
2018-01-12T20:31:09.437Z,24.50
2018-01-12T20:33:36.410Z,26.70
2018-01-12T20:36:03.721Z,27.73
2018-01-12T20:38:31.564Z,26.93
2018-01-12T20:40:58.353Z,36.57
2018-01-12T20:43:25.274Z,23.67
2018-01-12T20:45:52.152Z,23.67
2018-01-12T20:48:19.175Z,22.83
2018-01-12T20:50:46.142Z,22.23
2018-01-12T20:53:14.389Z,23.07
2018-01-12T20:55:41.590Z,27.87
2018-01-12T20:58:08.595Z,20.90
2018-01-12T21:00:35.725Z,21.33
2018-01-12T21:03:02.835Z,22.43
2018-01-12T21:05:29.718Z,22.93
2018-01-12T21:07:56.571Z,29.37
2018-01-12T21:10:23.604Z,24.67
2018-01-12T21:12:50.829Z,27.77
2018-01-12T21:15:17.837Z,26.50
2018-01-12T21:17:44.628Z,23.90
2018-01-12T21:20:11.643Z,23.60
2018-01-12T21:22:38.425Z,23.63
2018-01-12T21:25:09.735Z,23.70
2018-01-12T21:27:39.498Z,23.73
2018-01-12T21:30:07.673Z,21.37
2018-01-12T21:32:34.803Z,24.27
2018-01-12T21:35:01.643Z,25.87
2018-01-12T21:37:29.361Z,25.10
2018-01-12T21:39:56.310Z,33.60
2018-01-12T21:42:23.132Z,22.87
2018-01-12T21:44:49.955Z,23.77
2018-01-12T21:47:16.819Z,23.07
2018-01-12T21:49:43.653Z,21.97
2018-01-12T21:52:11.083Z,21.60
2018-01-12T21:54:37.969Z,21.00
2018-01-12T21:57:05.262Z,22.57
2018-01-12T21:59:32.078Z,20.30
2018-01-12T22:01:59.149Z,22.57
2018-01-12T22:04:25.983Z,22.70
2018-01-12T22:06:52.822Z,22.63
2018-01-12T22:09:19.797Z,22.63
2018-01-12T22:11:47.566Z,20.47
2018-01-12T22:14:14.390Z,20.47
2018-01-12T22:16:41.219Z,21.97
2018-01-12T22:19:08.275Z,20.93
2018-01-12T22:21:35.978Z,21.33
2018-01-12T22:24:02.767Z,20.47
2018-01-12T22:26:29.541Z,18.50
2018-01-12T22:28:56.360Z,19.63
2018-01-12T22:31:23.233Z,19.57
2018-01-12T22:33:50.007Z,20.83
2018-01-12T22:36:16.832Z,19.70
2018-01-12T22:38:43.620Z,18.80
2018-01-12T22:41:10.627Z,18.53
2018-01-12T22:43:37.437Z,26.33
2018-01-12T22:46:04.217Z,22.53
2018-01-12T22:48:31.025Z,19.60
2018-01-12T22:50:57.818Z,19.30
2018-01-12T22:53:24.682Z,19.13
2018-01-12T22:55:51.458Z,17.67
2018-01-12T22:58:18.247Z,18.20
2018-01-12T23:00:45.034Z,18.23
2018-01-12T23:03:11.811Z,20.30
2018-01-12T23:05:38.837Z,19.30
2018-01-12T23:08:05.682Z,18.43
2018-01-12T23:10:32.497Z,18.60
2018-01-12T23:12:59.302Z,18.50
2018-01-12T23:15:26.315Z,17.47
2018-01-12T23:17:53.231Z,18.10
2018-01-12T23:20:20.217Z,18.60
2018-01-12T23:22:47.157Z,17.73
2018-01-12T23:25:13.957Z,19.63
2018-01-12T23:27:40.767Z,19.90
2018-01-12T23:30:08.119Z,20.00
2018-01-12T23:32:34.926Z,18.60
2018-01-12T23:35:01.890Z,17.67
2018-01-12T23:37:28.878Z,16.03
2018-01-12T23:39:55.717Z,15.13
2018-01-12T23:42:22.725Z,13.97
2018-01-12T23:44:49.677Z,15.13
2018-01-12T23:47:16.492Z,12.97
2018-01-12T23:49:43.296Z,12.93
2018-01-12T23:52:10.335Z,13.17
2018-01-12T23:54:37.406Z,12.70
2018-01-12T23:57:04.963Z,12.60
2018-01-12T23:59:31.862Z,11.70
